sensor_id;sensor_type;location;lat;lon;timestamp;P1;durP1;ratioP1;P2;durP2;ratioP2
61112;SDS011;47184;57.998;56.184;2022-09-03T00:00:35;3.72;;;2.10;;
61112;SDS011;47184;57.998;56.184;2022-09-03T00:03:09;4.47;;;1.98;;
61112;SDS011;47184;57.998;56.184;2022-09-03T00:05:44;10.05;;;2.42;;
61112;SDS011;47184;57.998;56.184;2022-09-03T00:11:13;2.75;;;1.90;;
61112;SDS011;47184;57.998;56.184;2022-09-03T00:16:56;4.68;;;2.25;;
61112;SDS011;47184;57.998;56.184;2022-09-03T00:19:28;9.23;;;1.15;;
61112;SDS011;47184;57.998;56.184;2022-09-03T00:22:07;2.47;;;1.33;;
61112;SDS011;47184;57.998;56.184;2022-09-03T00:24:38;2.33;;;1.38;;
61112;SDS011;47184;57.998;56.184;2022-09-03T00:27:14;3.30;;;2.05;;
61112;SDS011;47184;57.998;56.184;2022-09-03T00:29:49;3.30;;;1.25;;
61112;SDS011;47184;57.998;56.184;2022-09-03T00:32:38;2.60;;;1.45;;
61112;SDS011;47184;57.998;56.184;2022-09-03T00:35:10;7.95;;;2.03;;
61112;SDS011;47184;57.998;56.184;2022-09-03T00:37:43;4.32;;;1.75;;
61112;SDS011;47184;57.998;56.184;2022-09-03T00:40:10;4.20;;;1.27;;
61112;SDS011;47184;57.998;56.184;2022-09-03T00:43:37;7.55;;;1.73;;
61112;SDS011;47184;57.998;56.184;2022-09-03T00:54:45;2.47;;;1.33;;
61112;SDS011;47184;57.998;56.184;2022-09-03T00:59:54;4.35;;;1.73;;
61112;SDS011;47184;57.998;56.184;2022-09-03T01:02:46;8.93;;;1.90;;
61112;SDS011;47184;57.998;56.184;2022-09-03T01:10:30;2.25;;;1.10;;
61112;SDS011;47184;57.998;56.184;2022-09-03T01:13:21;1.10;;;0.80;;
61112;SDS011;47184;57.998;56.184;2022-09-03T01:21:41;5.07;;;1.52;;
61112;SDS011;47184;57.998;56.184;2022-09-03T01:24:24;1.55;;;0.73;;
61112;SDS011;47184;57.998;56.184;2022-09-03T01:27:09;3.15;;;1.77;;
61112;SDS011;47184;57.998;56.184;2022-09-03T01:29:50;1.02;;;0.75;;
61112;SDS011;47184;57.998;56.184;2022-09-03T01:44:18;0.95;;;0.52;;
61112;SDS011;47184;57.998;56.184;2022-09-03T01:46:50;1.33;;;0.73;;
61112;SDS011;47184;57.998;56.184;2022-09-03T01:49:36;4.15;;;1.08;;
61112;SDS011;47184;57.998;56.184;2022-09-03T01:52:12;4.47;;;0.80;;
61112;SDS011;47184;57.998;56.184;2022-09-03T01:57:42;2.30;;;1.27;;
61112;SDS011;47184;57.998;56.184;2022-09-03T02:00:14;5.30;;;1.00;;
61112;SDS011;47184;57.998;56.184;2022-09-03T02:02:45;2.67;;;0.88;;
61112;SDS011;47184;57.998;56.184;2022-09-03T02:07:56;7.43;;;1.10;;
61112;SDS011;47184;57.998;56.184;2022-09-03T02:10:42;3.15;;;0.98;;
61112;SDS011;47184;57.998;56.184;2022-09-03T02:16:30;5.30;;;1.00;;
61112;SDS011;47184;57.998;56.184;2022-09-03T02:19:06;1.63;;;0.80;;
61112;SDS011;47184;57.998;56.184;2022-09-03T02:21:41;9.70;;;1.25;;
61112;SDS011;47184;57.998;56.184;2022-09-03T02:24:12;5.38;;;0.43;;
61112;SDS011;47184;57.998;56.184;2022-09-03T02:26:38;5.10;;;1.02;;
61112;SDS011;47184;57.998;56.184;2022-09-03T02:29:04;1.73;;;1.00;;
61112;SDS011;47184;57.998;56.184;2022-09-03T02:31:30;0.65;;;0.50;;
61112;SDS011;47184;57.998;56.184;2022-09-03T02:33:56;4.18;;;1.35;;
61112;SDS011;47184;57.998;56.184;2022-09-03T02:36:27;8.90;;;1.73;;
61112;SDS011;47184;57.998;56.184;2022-09-03T02:38:57;1.75;;;0.88;;
61112;SDS011;47184;57.998;56.184;2022-09-03T02:41:23;1.73;;;0.68;;
61112;SDS011;47184;57.998;56.184;2022-09-03T02:44:00;3.45;;;1.10;;
61112;SDS011;47184;57.998;56.184;2022-09-03T02:46:38;6.35;;;1.52;;
61112;SDS011;47184;57.998;56.184;2022-09-03T02:49:08;6.32;;;0.75;;
61112;SDS011;47184;57.998;56.184;2022-09-03T02:51:35;2.17;;;0.90;;
61112;SDS011;47184;57.998;56.184;2022-09-03T02:54:03;0.70;;;0.50;;
61112;SDS011;47184;57.998;56.184;2022-09-03T02:56:29;2.28;;;0.90;;
61112;SDS011;47184;57.998;56.184;2022-09-03T02:58:55;3.20;;;0.93;;
61112;SDS011;47184;57.998;56.184;2022-09-03T03:01:21;2.72;;;1.50;;
61112;SDS011;47184;57.998;56.184;2022-09-03T03:03:47;2.53;;;0.95;;
61112;SDS011;47184;57.998;56.184;2022-09-03T03:06:14;5.50;;;1.35;;
61112;SDS011;47184;57.998;56.184;2022-09-03T03:08:41;2.88;;;1.15;;
61112;SDS011;47184;57.998;56.184;2022-09-03T03:11:08;1.38;;;0.88;;
61112;SDS011;47184;57.998;56.184;2022-09-03T03:13:34;0.70;;;0.47;;
61112;SDS011;47184;57.998;56.184;2022-09-03T03:16:01;0.93;;;0.50;;
61112;SDS011;47184;57.998;56.184;2022-09-03T03:18:33;0.95;;;0.40;;
61112;SDS011;47184;57.998;56.184;2022-09-03T03:21:06;0.90;;;0.63;;
61112;SDS011;47184;57.998;56.184;2022-09-03T03:23:34;3.03;;;1.45;;
61112;SDS011;47184;57.998;56.184;2022-09-03T03:26:08;0.43;;;0.40;;
61112;SDS011;47184;57.998;56.184;2022-09-03T03:28:36;1.92;;;0.73;;
61112;SDS011;47184;57.998;56.184;2022-09-03T03:33:32;3.38;;;1.17;;
61112;SDS011;47184;57.998;56.184;2022-09-03T03:36:02;3.35;;;1.17;;
61112;SDS011;47184;57.998;56.184;2022-09-03T03:38:34;2.15;;;0.82;;
61112;SDS011;47184;57.998;56.184;2022-09-03T03:41:17;3.05;;;1.40;;
61112;SDS011;47184;57.998;56.184;2022-09-03T03:43:54;1.80;;;0.80;;
61112;SDS011;47184;57.998;56.184;2022-09-03T03:46:22;0.85;;;0.60;;
61112;SDS011;47184;57.998;56.184;2022-09-03T03:48:49;2.95;;;1.10;;
61112;SDS011;47184;57.998;56.184;2022-09-03T03:51:17;0.73;;;0.60;;
61112;SDS011;47184;57.998;56.184;2022-09-03T03:53:44;2.05;;;1.17;;
61112;SDS011;47184;57.998;56.184;2022-09-03T03:56:12;1.67;;;0.85;;
61112;SDS011;47184;57.998;56.184;2022-09-03T03:58:39;2.88;;;0.95;;
61112;SDS011;47184;57.998;56.184;2022-09-03T04:01:07;2.55;;;0.93;;
61112;SDS011;47184;57.998;56.184;2022-09-03T04:03:34;2.00;;;0.90;;
61112;SDS011;47184;57.998;56.184;2022-09-03T04:06:00;0.50;;;0.35;;
61112;SDS011;47184;57.998;56.184;2022-09-03T04:08:27;0.73;;;0.63;;
61112;SDS011;47184;57.998;56.184;2022-09-03T04:10:53;0.70;;;0.40;;
61112;SDS011;47184;57.998;56.184;2022-09-03T04:13:27;1.33;;;0.68;;
61112;SDS011;47184;57.998;56.184;2022-09-03T04:16:04;0.88;;;0.65;;
61112;SDS011;47184;57.998;56.184;2022-09-03T04:18:40;1.67;;;0.53;;
61112;SDS011;47184;57.998;56.184;2022-09-03T04:21:10;1.27;;;0.70;;
61112;SDS011;47184;57.998;56.184;2022-09-03T04:23:39;3.00;;;0.98;;
61112;SDS011;47184;57.998;56.184;2022-09-03T04:26:08;2.20;;;0.73;;
61112;SDS011;47184;57.998;56.184;2022-09-03T04:28:35;1.23;;;0.57;;
61112;SDS011;47184;57.998;56.184;2022-09-03T04:31:02;0.68;;;0.52;;
61112;SDS011;47184;57.998;56.184;2022-09-03T04:33:30;1.75;;;0.60;;
61112;SDS011;47184;57.998;56.184;2022-09-03T04:36:04;0.32;;;0.30;;
61112;SDS011;47184;57.998;56.184;2022-09-03T04:38:36;8.00;;;0.88;;
61112;SDS011;47184;57.998;56.184;2022-09-03T04:41:05;1.10;;;0.50;;
61112;SDS011;47184;57.998;56.184;2022-09-03T04:43:33;1.90;;;0.43;;
61112;SDS011;47184;57.998;56.184;2022-09-03T04:46:00;3.25;;;0.55;;
61112;SDS011;47184;57.998;56.184;2022-09-03T04:48:29;4.78;;;0.80;;
61112;SDS011;47184;57.998;56.184;2022-09-03T04:51:03;4.43;;;1.02;;
61112;SDS011;47184;57.998;56.184;2022-09-03T04:53:34;1.63;;;0.50;;
61112;SDS011;47184;57.998;56.184;2022-09-03T04:56:02;3.90;;;0.43;;
61112;SDS011;47184;57.998;56.184;2022-09-03T04:58:37;5.30;;;0.50;;
61112;SDS011;47184;57.998;56.184;2022-09-03T05:01:09;0.95;;;0.55;;
61112;SDS011;47184;57.998;56.184;2022-09-03T05:03:36;1.27;;;0.35;;
61112;SDS011;47184;57.998;56.184;2022-09-03T05:06:03;1.00;;;0.20;;
61112;SDS011;47184;57.998;56.184;2022-09-03T05:08:30;4.63;;;0.75;;
61112;SDS011;47184;57.998;56.184;2022-09-03T05:10:58;0.65;;;0.30;;
61112;SDS011;47184;57.998;56.184;2022-09-03T05:13:25;2.47;;;0.20;;
61112;SDS011;47184;57.998;56.184;2022-09-03T05:16:03;2.30;;;0.73;;
61112;SDS011;47184;57.998;56.184;2022-09-03T05:18:31;0.55;;;0.40;;
61112;SDS011;47184;57.998;56.184;2022-09-03T05:20:58;0.30;;;0.20;;
61112;SDS011;47184;57.998;56.184;2022-09-03T05:23:26;0.80;;;0.32;;
61112;SDS011;47184;57.998;56.184;2022-09-03T05:25:59;1.23;;;0.17;;
61112;SDS011;47184;57.998;56.184;2022-09-03T05:30:58;1.10;;;0.60;;
61112;SDS011;47184;57.998;56.184;2022-09-03T05:33:25;3.90;;;0.75;;
61112;SDS011;47184;57.998;56.184;2022-09-03T05:35:52;0.98;;;0.73;;
61112;SDS011;47184;57.998;56.184;2022-09-03T05:38:29;3.00;;;0.55;;
61112;SDS011;47184;57.998;56.184;2022-09-03T05:40:59;4.78;;;1.17;;
61112;SDS011;47184;57.998;56.184;2022-09-03T05:43:26;6.65;;;0.80;;
61112;SDS011;47184;57.998;56.184;2022-09-03T05:45:59;3.75;;;0.70;;
61112;SDS011;47184;57.998;56.184;2022-09-03T05:48:31;1.95;;;0.35;;
61112;SDS011;47184;57.998;56.184;2022-09-03T05:50:59;2.40;;;0.55;;
61112;SDS011;47184;57.998;56.184;2022-09-03T05:53:26;0.52;;;0.40;;
61112;SDS011;47184;57.998;56.184;2022-09-03T05:55:57;0.50;;;0.40;;
61112;SDS011;47184;57.998;56.184;2022-09-03T05:58:28;1.13;;;0.30;;
61112;SDS011;47184;57.998;56.184;2022-09-03T06:00:55;0.40;;;0.30;;
61112;SDS011;47184;57.998;56.184;2022-09-03T06:03:21;3.47;;;0.55;;
61112;SDS011;47184;57.998;56.184;2022-09-03T06:05:51;5.30;;;0.20;;
61112;SDS011;47184;57.998;56.184;2022-09-03T06:08:19;0.77;;;0.30;;
61112;SDS011;47184;57.998;56.184;2022-09-03T06:10:46;6.30;;;0.52;;
61112;SDS011;47184;57.998;56.184;2022-09-03T06:13:12;0.95;;;0.40;;
61112;SDS011;47184;57.998;56.184;2022-09-03T06:15:39;0.50;;;0.20;;
61112;SDS011;47184;57.998;56.184;2022-09-03T06:18:05;0.88;;;0.40;;
61112;SDS011;47184;57.998;56.184;2022-09-03T06:20:31;2.72;;;0.40;;
61112;SDS011;47184;57.998;56.184;2022-09-03T06:22:57;2.25;;;0.40;;
61112;SDS011;47184;57.998;56.184;2022-09-03T06:25:23;3.10;;;0.55;;
61112;SDS011;47184;57.998;56.184;2022-09-03T06:27:49;6.38;;;0.68;;
61112;SDS011;47184;57.998;56.184;2022-09-03T06:30:15;1.75;;;0.45;;
61112;SDS011;47184;57.998;56.184;2022-09-03T06:32:42;0.32;;;0.28;;
61112;SDS011;47184;57.998;56.184;2022-09-03T06:35:09;0.65;;;0.30;;
61112;SDS011;47184;57.998;56.184;2022-09-03T06:37:39;0.35;;;0.20;;
61112;SDS011;47184;57.998;56.184;2022-09-03T06:40:05;0.47;;;0.20;;
61112;SDS011;47184;57.998;56.184;2022-09-03T06:42:38;1.75;;;0.45;;
61112;SDS011;47184;57.998;56.184;2022-09-03T06:45:06;2.30;;;0.22;;
61112;SDS011;47184;57.998;56.184;2022-09-03T06:47:34;0.20;;;0.13;;
61112;SDS011;47184;57.998;56.184;2022-09-03T06:50:00;3.65;;;0.50;;
61112;SDS011;47184;57.998;56.184;2022-09-03T06:52:28;3.83;;;0.95;;
61112;SDS011;47184;57.998;56.184;2022-09-03T06:54:54;2.92;;;0.75;;
61112;SDS011;47184;57.998;56.184;2022-09-03T06:57:20;0.55;;;0.20;;
61112;SDS011;47184;57.998;56.184;2022-09-03T06:59:46;0.90;;;0.63;;
61112;SDS011;47184;57.998;56.184;2022-09-03T07:02:14;3.00;;;0.38;;
61112;SDS011;47184;57.998;56.184;2022-09-03T07:04:40;0.40;;;0.20;;
61112;SDS011;47184;57.998;56.184;2022-09-03T07:07:06;1.13;;;0.20;;
61112;SDS011;47184;57.998;56.184;2022-09-03T07:09:38;0.85;;;0.22;;
61112;SDS011;47184;57.998;56.184;2022-09-03T07:12:04;2.60;;;0.10;;
61112;SDS011;47184;57.998;56.184;2022-09-03T07:14:31;2.80;;;0.43;;
61112;SDS011;47184;57.998;56.184;2022-09-03T07:16:57;1.45;;;0.35;;
61112;SDS011;47184;57.998;56.184;2022-09-03T07:19:23;0.50;;;0.35;;
61112;SDS011;47184;57.998;56.184;2022-09-03T07:21:49;3.25;;;0.45;;
61112;SDS011;47184;57.998;56.184;2022-09-03T07:24:16;0.35;;;0.10;;
61112;SDS011;47184;57.998;56.184;2022-09-03T07:26:44;1.17;;;0.20;;
61112;SDS011;47184;57.998;56.184;2022-09-03T07:29:13;0.47;;;0.30;;
61112;SDS011;47184;57.998;56.184;2022-09-03T07:31:41;4.32;;;0.30;;
61112;SDS011;47184;57.998;56.184;2022-09-03T07:34:09;0.32;;;0.13;;
61112;SDS011;47184;57.998;56.184;2022-09-03T07:36:37;0.50;;;0.13;;
61112;SDS011;47184;57.998;56.184;2022-09-03T07:39:10;4.20;;;0.30;;
61112;SDS011;47184;57.998;56.184;2022-09-03T07:41:38;0.65;;;0.30;;
61112;SDS011;47184;57.998;56.184;2022-09-03T07:44:07;4.20;;;0.47;;
61112;SDS011;47184;57.998;56.184;2022-09-03T07:46:34;0.40;;;0.20;;
61112;SDS011;47184;57.998;56.184;2022-09-03T07:49:02;0.13;;;0.10;;
61112;SDS011;47184;57.998;56.184;2022-09-03T07:51:30;0.73;;;0.30;;
61112;SDS011;47184;57.998;56.184;2022-09-03T07:53:59;0.73;;;0.20;;
61112;SDS011;47184;57.998;56.184;2022-09-03T07:56:27;0.35;;;0.13;;
61112;SDS011;47184;57.998;56.184;2022-09-03T07:58:56;9.88;;;1.17;;
61112;SDS011;47184;57.998;56.184;2022-09-03T08:01:24;0.40;;;0.20;;
61112;SDS011;47184;57.998;56.184;2022-09-03T08:03:53;1.70;;;0.30;;
61112;SDS011;47184;57.998;56.184;2022-09-03T08:06:23;2.35;;;0.47;;
61112;SDS011;47184;57.998;56.184;2022-09-03T08:08:54;1.85;;;0.60;;
61112;SDS011;47184;57.998;56.184;2022-09-03T08:11:26;0.80;;;0.50;;
61112;SDS011;47184;57.998;56.184;2022-09-03T08:13:54;0.22;;;0.17;;
61112;SDS011;47184;57.998;56.184;2022-09-03T08:16:26;0.75;;;0.30;;
61112;SDS011;47184;57.998;56.184;2022-09-03T08:18:56;1.65;;;0.40;;
61112;SDS011;47184;57.998;56.184;2022-09-03T08:21:23;0.85;;;0.43;;
61112;SDS011;47184;57.998;56.184;2022-09-03T08:23:51;0.82;;;0.30;;
61112;SDS011;47184;57.998;56.184;2022-09-03T08:26:19;0.20;;;0.20;;
61112;SDS011;47184;57.998;56.184;2022-09-03T08:28:46;0.65;;;0.32;;
61112;SDS011;47184;57.998;56.184;2022-09-03T08:31:20;1.65;;;0.15;;
61112;SDS011;47184;57.998;56.184;2022-09-03T08:33:48;5.43;;;0.20;;
61112;SDS011;47184;57.998;56.184;2022-09-03T08:36:26;0.80;;;0.25;;
61112;SDS011;47184;57.998;56.184;2022-09-03T08:38:54;0.68;;;0.30;;
61112;SDS011;47184;57.998;56.184;2022-09-03T08:52:40;0.43;;;0.43;;
61112;SDS011;47184;57.998;56.184;2022-09-03T08:55:17;0.35;;;0.30;;
61112;SDS011;47184;57.998;56.184;2022-09-03T08:57:49;1.45;;;0.50;;
61112;SDS011;47184;57.998;56.184;2022-09-03T09:00:19;0.63;;;0.40;;
61112;SDS011;47184;57.998;56.184;2022-09-03T09:05:50;0.32;;;0.20;;
61112;SDS011;47184;57.998;56.184;2022-09-03T09:11:05;0.95;;;0.38;;
61112;SDS011;47184;57.998;56.184;2022-09-03T09:16:53;2.85;;;0.20;;
61112;SDS011;47184;57.998;56.184;2022-09-03T09:19:34;0.90;;;0.28;;
61112;SDS011;47184;57.998;56.184;2022-09-03T09:22:31;1.23;;;0.40;;
61112;SDS011;47184;57.998;56.184;2022-09-03T09:25:03;1.75;;;0.22;;
61112;SDS011;47184;57.998;56.184;2022-09-03T09:28:21;0.25;;;0.13;;
61112;SDS011;47184;57.998;56.184;2022-09-03T09:30:32;0.68;;;0.15;;
61112;SDS011;47184;57.998;56.184;2022-09-03T09:32:58;0.52;;;0.30;;
61112;SDS011;47184;57.998;56.184;2022-09-03T09:35:28;0.20;;;0.20;;
61112;SDS011;47184;57.998;56.184;2022-09-03T09:37:55;0.15;;;0.10;;
61112;SDS011;47184;57.998;56.184;2022-09-03T09:45:44;1.10;;;0.30;;
61112;SDS011;47184;57.998;56.184;2022-09-03T09:48:25;0.20;;;0.10;;
61112;SDS011;47184;57.998;56.184;2022-09-03T09:51:06;0.15;;;0.13;;
61112;SDS011;47184;57.998;56.184;2022-09-03T09:53:35;0.25;;;0.13;;
61112;SDS011;47184;57.998;56.184;2022-09-03T09:56:02;0.80;;;0.30;;
61112;SDS011;47184;57.998;56.184;2022-09-03T09:58:29;0.63;;;0.22;;
61112;SDS011;47184;57.998;56.184;2022-09-03T10:00:57;0.25;;;0.20;;
61112;SDS011;47184;57.998;56.184;2022-09-03T10:03:29;0.60;;;0.40;;
61112;SDS011;47184;57.998;56.184;2022-09-03T10:06:04;1.58;;;0.50;;
61112;SDS011;47184;57.998;56.184;2022-09-03T10:09:04;1.20;;;0.30;;
61112;SDS011;47184;57.998;56.184;2022-09-03T10:11:44;0.57;;;0.13;;
61112;SDS011;47184;57.998;56.184;2022-09-03T10:17:06;0.40;;;0.20;;
61112;SDS011;47184;57.998;56.184;2022-09-03T10:19:48;1.88;;;0.32;;
61112;SDS011;47184;57.998;56.184;2022-09-03T10:22:44;1.02;;;0.47;;
61112;SDS011;47184;57.998;56.184;2022-09-03T10:25:16;5.82;;;0.65;;
61112;SDS011;47184;57.998;56.184;2022-09-03T10:27:45;0.30;;;0.20;;
61112;SDS011;47184;57.998;56.184;2022-09-03T10:30:11;0.20;;;0.10;;
61112;SDS011;47184;57.998;56.184;2022-09-03T10:35:42;5.75;;;0.63;;
61112;SDS011;47184;57.998;56.184;2022-09-03T10:38:20;0.63;;;0.40;;
61112;SDS011;47184;57.998;56.184;2022-09-03T10:46:28;1.17;;;0.40;;
61112;SDS011;47184;57.998;56.184;2022-09-03T10:49:15;1.90;;;0.30;;
61112;SDS011;47184;57.998;56.184;2022-09-03T11:00:23;0.73;;;0.20;;
61112;SDS011;47184;57.998;56.184;2022-09-03T11:03:18;0.73;;;0.47;;
61112;SDS011;47184;57.998;56.184;2022-09-03T11:11:20;0.88;;;0.25;;
61112;SDS011;47184;57.998;56.184;2022-09-03T11:13:54;1.80;;;0.20;;
61112;SDS011;47184;57.998;56.184;2022-09-03T11:19:03;0.20;;;0.15;;
61112;SDS011;47184;57.998;56.184;2022-09-03T11:21:33;1.02;;;0.28;;
61112;SDS011;47184;57.998;56.184;2022-09-03T11:26:38;1.30;;;0.30;;
61112;SDS011;47184;57.998;56.184;2022-09-03T11:29:13;0.63;;;0.20;;
61112;SDS011;47184;57.998;56.184;2022-09-03T11:32:03;1.85;;;0.20;;
61112;SDS011;47184;57.998;56.184;2022-09-03T11:34:49;0.17;;;0.10;;
61112;SDS011;47184;57.998;56.184;2022-09-03T11:37:21;0.57;;;0.43;;
61112;SDS011;47184;57.998;56.184;2022-09-03T11:43:26;0.28;;;0.28;;
61112;SDS011;47184;57.998;56.184;2022-09-03T11:48:53;0.82;;;0.32;;
61112;SDS011;47184;57.998;56.184;2022-09-03T11:51:32;1.10;;;0.45;;
61112;SDS011;47184;57.998;56.184;2022-09-03T11:54:03;2.53;;;1.75;;
61112;SDS011;47184;57.998;56.184;2022-09-03T11:56:39;0.32;;;0.17;;
61112;SDS011;47184;57.998;56.184;2022-09-03T12:01:42;4.40;;;0.70;;
61112;SDS011;47184;57.998;56.184;2022-09-03T12:04:16;2.08;;;0.20;;
61112;SDS011;47184;57.998;56.184;2022-09-03T12:18:10;0.30;;;0.25;;
61112;SDS011;47184;57.998;56.184;2022-09-03T12:23:28;1.33;;;0.57;;
61112;SDS011;47184;57.998;56.184;2022-09-03T12:25:56;4.90;;;1.40;;
61112;SDS011;47184;57.998;56.184;2022-09-03T12:28:25;1.40;;;0.68;;
61112;SDS011;47184;57.998;56.184;2022-09-03T12:31:04;3.15;;;0.70;;
61112;SDS011;47184;57.998;56.184;2022-09-03T12:33:32;0.43;;;0.32;;
61112;SDS011;47184;57.998;56.184;2022-09-03T12:36:00;0.98;;;0.47;;
61112;SDS011;47184;57.998;56.184;2022-09-03T12:38:27;0.77;;;0.35;;
61112;SDS011;47184;57.998;56.184;2022-09-03T12:40:54;0.65;;;0.38;;
61112;SDS011;47184;57.998;56.184;2022-09-03T12:43:25;2.92;;;0.60;;
61112;SDS011;47184;57.998;56.184;2022-09-03T12:45:52;0.40;;;0.35;;
61112;SDS011;47184;57.998;56.184;2022-09-03T12:48:19;2.25;;;0.63;;
61112;SDS011;47184;57.998;56.184;2022-09-03T12:50:46;1.02;;;0.60;;
61112;SDS011;47184;57.998;56.184;2022-09-03T12:53:20;1.00;;;0.50;;
61112;SDS011;47184;57.998;56.184;2022-09-03T12:55:50;0.80;;;0.43;;
61112;SDS011;47184;57.998;56.184;2022-09-03T12:58:27;1.05;;;0.30;;
61112;SDS011;47184;57.998;56.184;2022-09-03T13:01:03;0.50;;;0.38;;
61112;SDS011;47184;57.998;56.184;2022-09-03T13:03:49;5.18;;;0.60;;
61112;SDS011;47184;57.998;56.184;2022-09-03T13:06:22;0.30;;;0.20;;
61112;SDS011;47184;57.998;56.184;2022-09-03T13:08:57;1.70;;;0.40;;
61112;SDS011;47184;57.998;56.184;2022-09-03T13:11:27;4.20;;;0.55;;
61112;SDS011;47184;57.998;56.184;2022-09-03T13:14:01;1.08;;;0.40;;
61112;SDS011;47184;57.998;56.184;2022-09-03T13:16:40;0.35;;;0.22;;
61112;SDS011;47184;57.998;56.184;2022-09-03T13:23:05;1.98;;;0.40;;
61112;SDS011;47184;57.998;56.184;2022-09-03T13:28:37;1.38;;;0.50;;
61112;SDS011;47184;57.998;56.184;2022-09-03T13:31:30;0.60;;;0.45;;
61112;SDS011;47184;57.998;56.184;2022-09-03T13:34:09;1.90;;;0.50;;
61112;SDS011;47184;57.998;56.184;2022-09-03T13:36:48;0.38;;;0.30;;
61112;SDS011;47184;57.998;56.184;2022-09-03T13:39:45;0.98;;;0.47;;
61112;SDS011;47184;57.998;56.184;2022-09-03T13:47:42;7.95;;;0.40;;
61112;SDS011;47184;57.998;56.184;2022-09-03T13:50:38;1.10;;;0.55;;
61112;SDS011;47184;57.998;56.184;2022-09-03T13:55:51;0.95;;;0.63;;
61112;SDS011;47184;57.998;56.184;2022-09-03T13:59:04;0.73;;;0.20;;
61112;SDS011;47184;57.998;56.184;2022-09-03T14:03:57;1.98;;;0.70;;
61112;SDS011;47184;57.998;56.184;2022-09-03T14:06:42;0.55;;;0.20;;
61112;SDS011;47184;57.998;56.184;2022-09-03T14:09:26;0.85;;;0.30;;
61112;SDS011;47184;57.998;56.184;2022-09-03T14:12:24;1.05;;;0.43;;
61112;SDS011;47184;57.998;56.184;2022-09-03T14:21:00;3.22;;;0.70;;
61112;SDS011;47184;57.998;56.184;2022-09-03T14:26:21;0.43;;;0.40;;
61112;SDS011;47184;57.998;56.184;2022-09-03T14:29:03;1.30;;;0.70;;
61112;SDS011;47184;57.998;56.184;2022-09-03T14:31:56;3.35;;;0.70;;
61112;SDS011;47184;57.998;56.184;2022-09-03T14:37:14;0.50;;;0.20;;
61112;SDS011;47184;57.998;56.184;2022-09-03T14:39:54;1.65;;;1.00;;
61112;SDS011;47184;57.998;56.184;2022-09-03T14:48:04;0.65;;;0.30;;
61112;SDS011;47184;57.998;56.184;2022-09-03T15:08:00;1.75;;;0.73;;
61112;SDS011;47184;57.998;56.184;2022-09-03T15:10:51;1.92;;;0.93;;
61112;SDS011;47184;57.998;56.184;2022-09-03T15:24:53;3.85;;;1.30;;
61112;SDS011;47184;57.998;56.184;2022-09-03T15:30:24;2.28;;;1.02;;
61112;SDS011;47184;57.998;56.184;2022-09-03T15:33:22;4.18;;;2.03;;
61112;SDS011;47184;57.998;56.184;2022-09-03T15:36:24;4.47;;;2.55;;
61112;SDS011;47184;57.998;56.184;2022-09-03T15:39:03;4.53;;;2.08;;
61112;SDS011;47184;57.998;56.184;2022-09-03T15:44:23;4.28;;;1.60;;
61112;SDS011;47184;57.998;56.184;2022-09-03T15:52:29;4.57;;;2.08;;
61112;SDS011;47184;57.998;56.184;2022-09-03T16:00:29;5.13;;;2.38;;
61112;SDS011;47184;57.998;56.184;2022-09-03T16:03:05;3.78;;;1.73;;
61112;SDS011;47184;57.998;56.184;2022-09-03T16:16:15;4.30;;;1.60;;
61112;SDS011;47184;57.998;56.184;2022-09-03T16:19:10;7.57;;;1.80;;
61112;SDS011;47184;57.998;56.184;2022-09-03T16:24:43;3.45;;;1.63;;
61112;SDS011;47184;57.998;56.184;2022-09-03T16:27:25;1.50;;;0.90;;
61112;SDS011;47184;57.998;56.184;2022-09-03T16:30:32;5.22;;;1.65;;
61112;SDS011;47184;57.998;56.184;2022-09-03T16:33:32;1.45;;;0.68;;
61112;SDS011;47184;57.998;56.184;2022-09-03T16:36:05;4.25;;;1.20;;
61112;SDS011;47184;57.998;56.184;2022-09-03T16:41:42;1.85;;;0.90;;
61112;SDS011;47184;57.998;56.184;2022-09-03T16:44:37;1.60;;;0.60;;
61112;SDS011;47184;57.998;56.184;2022-09-03T16:52:40;3.67;;;1.48;;
61112;SDS011;47184;57.998;56.184;2022-09-03T17:00:19;2.00;;;0.70;;
61112;SDS011;47184;57.998;56.184;2022-09-03T17:08:40;1.35;;;0.60;;
61112;SDS011;47184;57.998;56.184;2022-09-03T17:24:52;0.98;;;0.40;;
61112;SDS011;47184;57.998;56.184;2022-09-03T17:27:47;1.90;;;0.95;;
61112;SDS011;47184;57.998;56.184;2022-09-03T17:30:18;3.08;;;0.70;;
61112;SDS011;47184;57.998;56.184;2022-09-03T17:35:57;3.38;;;0.20;;
61112;SDS011;47184;57.998;56.184;2022-09-03T17:44:06;1.27;;;0.60;;
61112;SDS011;47184;57.998;56.184;2022-09-03T17:46:51;3.08;;;0.40;;
61112;SDS011;47184;57.998;56.184;2022-09-03T17:49:28;0.75;;;0.40;;
61112;SDS011;47184;57.998;56.184;2022-09-03T17:52:04;1.05;;;0.30;;
61112;SDS011;47184;57.998;56.184;2022-09-03T17:59:58;1.08;;;0.35;;
61112;SDS011;47184;57.998;56.184;2022-09-03T18:02:38;1.30;;;0.32;;
61112;SDS011;47184;57.998;56.184;2022-09-03T18:05:29;0.75;;;0.45;;
61112;SDS011;47184;57.998;56.184;2022-09-03T18:08:07;0.52;;;0.20;;
61112;SDS011;47184;57.998;56.184;2022-09-03T18:10:42;2.13;;;0.35;;
61112;SDS011;47184;57.998;56.184;2022-09-03T18:13:54;0.43;;;0.22;;
61112;SDS011;47184;57.998;56.184;2022-09-03T18:16:41;2.28;;;0.63;;
61112;SDS011;47184;57.998;56.184;2022-09-03T18:22:04;5.85;;;0.57;;
61112;SDS011;47184;57.998;56.184;2022-09-03T18:24:53;0.25;;;0.05;;
61112;SDS011;47184;57.998;56.184;2022-09-03T18:27:46;2.53;;;0.25;;
61112;SDS011;47184;57.998;56.184;2022-09-03T18:30:36;0.15;;;0.13;;
61112;SDS011;47184;57.998;56.184;2022-09-03T18:33:25;1.08;;;0.30;;
61112;SDS011;47184;57.998;56.184;2022-09-03T18:36:10;0.65;;;0.10;;
61112;SDS011;47184;57.998;56.184;2022-09-03T18:45:26;3.38;;;0.30;;
61112;SDS011;47184;57.998;56.184;2022-09-03T18:52:48;3.65;;;0.30;;
61112;SDS011;47184;57.998;56.184;2022-09-03T18:55:21;5.95;;;0.45;;
61112;SDS011;47184;57.998;56.184;2022-09-03T18:58:35;0.65;;;0.20;;
61112;SDS011;47184;57.998;56.184;2022-09-03T19:01:34;2.88;;;0.40;;
61112;SDS011;47184;57.998;56.184;2022-09-03T19:10:44;0.55;;;0.28;;
61112;SDS011;47184;57.998;56.184;2022-09-03T19:22:46;1.55;;;0.30;;
61112;SDS011;47184;57.998;56.184;2022-09-03T19:25:30;0.30;;;0.20;;
61112;SDS011;47184;57.998;56.184;2022-09-03T19:28:19;1.00;;;0.30;;
61112;SDS011;47184;57.998;56.184;2022-09-03T19:37:28;12.73;;;0.88;;
61112;SDS011;47184;57.998;56.184;2022-09-03T19:52:35;1.48;;;0.35;;
61112;SDS011;47184;57.998;56.184;2022-09-03T19:55:34;1.60;;;0.30;;
61112;SDS011;47184;57.998;56.184;2022-09-03T19:58:23;0.60;;;0.40;;
61112;SDS011;47184;57.998;56.184;2022-09-03T20:01:14;0.80;;;0.40;;
61112;SDS011;47184;57.998;56.184;2022-09-03T20:04:02;0.77;;;0.30;;
61112;SDS011;47184;57.998;56.184;2022-09-03T20:06:55;1.90;;;0.30;;
61112;SDS011;47184;57.998;56.184;2022-09-03T20:09:41;2.90;;;0.20;;
61112;SDS011;47184;57.998;56.184;2022-09-03T20:12:27;1.92;;;0.45;;
61112;SDS011;47184;57.998;56.184;2022-09-03T20:15:01;1.10;;;0.20;;
61112;SDS011;47184;57.998;56.184;2022-09-03T20:25:34;0.95;;;0.30;;
61112;SDS011;47184;57.998;56.184;2022-09-03T20:36:54;0.90;;;0.43;;
61112;SDS011;47184;57.998;56.184;2022-09-03T20:45:36;1.60;;;0.50;;
61112;SDS011;47184;57.998;56.184;2022-09-03T20:48:18;0.82;;;0.40;;
61112;SDS011;47184;57.998;56.184;2022-09-03T20:51:03;2.22;;;0.70;;
61112;SDS011;47184;57.998;56.184;2022-09-03T20:56:19;1.02;;;0.35;;
61112;SDS011;47184;57.998;56.184;2022-09-03T21:01:44;0.82;;;0.40;;
61112;SDS011;47184;57.998;56.184;2022-09-03T21:10:31;0.60;;;0.38;;
61112;SDS011;47184;57.998;56.184;2022-09-03T21:18:22;0.43;;;0.20;;